sensor_id;sensor_type;location;lat;lon;timestamp;P1;durP1;ratioP1;P2;durP2;ratioP2
22697;SDS011;11516;51.612;7.510;2022-12-17T00:01:48;127.80;;;51.70;;
22697;SDS011;11516;51.612;7.510;2022-12-17T00:04:32;130.43;;;51.88;;
22697;SDS011;11516;51.612;7.510;2022-12-17T00:07:18;141.80;;;55.78;;
22697;SDS011;11516;51.612;7.510;2022-12-17T00:10:02;120.35;;;55.22;;
22697;SDS011;11516;51.612;7.510;2022-12-17T00:12:47;127.10;;;58.50;;
22697;SDS011;11516;51.612;7.510;2022-12-17T00:15:32;113.43;;;56.67;;
22697;SDS011;11516;51.612;7.510;2022-12-17T00:18:17;116.53;;;55.55;;
22697;SDS011;11516;51.612;7.510;2022-12-17T00:21:01;119.47;;;56.58;;
22697;SDS011;11516;51.612;7.510;2022-12-17T00:23:46;123.20;;;56.60;;
22697;SDS011;11516;51.612;7.510;2022-12-17T00:26:30;111.90;;;54.70;;
22697;SDS011;11516;51.612;7.510;2022-12-17T00:29:15;104.25;;;53.65;;
22697;SDS011;11516;51.612;7.510;2022-12-17T00:32:00;112.22;;;50.92;;
22697;SDS011;11516;51.612;7.510;2022-12-17T00:34:45;132.40;;;54.47;;
22697;SDS011;11516;51.612;7.510;2022-12-17T00:37:29;109.97;;;53.67;;
22697;SDS011;11516;51.612;7.510;2022-12-17T00:40:13;108.75;;;54.60;;
22697;SDS011;11516;51.612;7.510;2022-12-17T00:43:08;129.75;;;52.97;;
22697;SDS011;11516;51.612;7.510;2022-12-17T00:45:53;118.22;;;52.65;;
22697;SDS011;11516;51.612;7.510;2022-12-17T00:48:38;107.57;;;51.50;;
22697;SDS011;11516;51.612;7.510;2022-12-17T00:51:22;114.43;;;49.90;;
22697;SDS011;11516;51.612;7.510;2022-12-17T00:54:07;109.35;;;51.38;;
22697;SDS011;11516;51.612;7.510;2022-12-17T00:56:51;123.13;;;50.88;;
22697;SDS011;11516;51.612;7.510;2022-12-17T00:59:35;110.25;;;51.35;;
22697;SDS011;11516;51.612;7.510;2022-12-17T01:02:20;97.18;;;49.97;;
22697;SDS011;11516;51.612;7.510;2022-12-17T01:05:05;100.03;;;51.13;;
22697;SDS011;11516;51.612;7.510;2022-12-17T01:07:49;119.72;;;50.10;;
22697;SDS011;11516;51.612;7.510;2022-12-17T01:10:34;116.07;;;51.78;;
22697;SDS011;11516;51.612;7.510;2022-12-17T01:13:18;111.10;;;50.75;;
22697;SDS011;11516;51.612;7.510;2022-12-17T01:16:09;109.90;;;49.72;;
22697;SDS011;11516;51.612;7.510;2022-12-17T01:18:56;101.13;;;51.70;;
22697;SDS011;11516;51.612;7.510;2022-12-17T01:21:40;111.07;;;51.60;;
22697;SDS011;11516;51.612;7.510;2022-12-17T01:24:26;104.97;;;50.13;;
22697;SDS011;11516;51.612;7.510;2022-12-17T01:27:11;107.05;;;50.45;;
22697;SDS011;11516;51.612;7.510;2022-12-17T01:29:57;120.00;;;51.13;;
22697;SDS011;11516;51.612;7.510;2022-12-17T01:32:41;105.22;;;51.05;;
22697;SDS011;11516;51.612;7.510;2022-12-17T01:35:25;105.05;;;47.65;;
22697;SDS011;11516;51.612;7.510;2022-12-17T01:38:10;113.00;;;47.05;;
22697;SDS011;11516;51.612;7.510;2022-12-17T01:41:09;117.18;;;48.67;;
22697;SDS011;11516;51.612;7.510;2022-12-17T01:43:53;128.38;;;51.55;;
22697;SDS011;11516;51.612;7.510;2022-12-17T01:46:38;120.88;;;47.90;;
22697;SDS011;11516;51.612;7.510;2022-12-17T01:49:28;121.00;;;48.37;;
22697;SDS011;11516;51.612;7.510;2022-12-17T01:52:12;110.60;;;50.25;;
22697;SDS011;11516;51.612;7.510;2022-12-17T01:54:59;102.97;;;48.80;;
22697;SDS011;11516;51.612;7.510;2022-12-17T01:57:46;108.60;;;49.50;;
22697;SDS011;11516;51.612;7.510;2022-12-17T02:00:30;110.03;;;49.20;;
22697;SDS011;11516;51.612;7.510;2022-12-17T02:03:12;105.00;;;48.33;;
22697;SDS011;11516;51.612;7.510;2022-12-17T02:06:01;105.78;;;48.25;;
22697;SDS011;11516;51.612;7.510;2022-12-17T02:17:47;104.57;;;47.65;;
22697;SDS011;11516;51.612;7.510;2022-12-17T02:20:37;110.87;;;49.27;;
22697;SDS011;11516;51.612;7.510;2022-12-17T02:26:46;112.93;;;52.07;;
22697;SDS011;11516;51.612;7.510;2022-12-17T02:29:33;111.93;;;50.10;;
22697;SDS011;11516;51.612;7.510;2022-12-17T02:32:24;118.85;;;50.53;;
22697;SDS011;11516;51.612;7.510;2022-12-17T02:35:12;110.78;;;49.22;;
22697;SDS011;11516;51.612;7.510;2022-12-17T02:37:58;100.35;;;48.97;;
22697;SDS011;11516;51.612;7.510;2022-12-17T02:40:42;106.82;;;49.83;;
22697;SDS011;11516;51.612;7.510;2022-12-17T02:43:29;102.97;;;48.42;;
22697;SDS011;11516;51.612;7.510;2022-12-17T02:46:15;98.38;;;46.47;;
22697;SDS011;11516;51.612;7.510;2022-12-17T02:49:00;101.82;;;47.25;;
22697;SDS011;11516;51.612;7.510;2022-12-17T02:51:44;95.97;;;45.80;;
22697;SDS011;11516;51.612;7.510;2022-12-17T02:54:28;94.43;;;45.78;;
22697;SDS011;11516;51.612;7.510;2022-12-17T02:57:13;93.72;;;47.58;;
22697;SDS011;11516;51.612;7.510;2022-12-17T02:59:57;94.65;;;46.22;;
22697;SDS011;11516;51.612;7.510;2022-12-17T03:02:41;93.82;;;46.55;;
22697;SDS011;11516;51.612;7.510;2022-12-17T03:05:25;91.20;;;47.00;;
22697;SDS011;11516;51.612;7.510;2022-12-17T03:08:09;86.78;;;45.70;;
22697;SDS011;11516;51.612;7.510;2022-12-17T03:10:54;87.73;;;44.70;;
22697;SDS011;11516;51.612;7.510;2022-12-17T03:13:38;82.82;;;42.60;;
22697;SDS011;11516;51.612;7.510;2022-12-17T03:16:22;84.03;;;42.40;;
22697;SDS011;11516;51.612;7.510;2022-12-17T03:19:07;91.15;;;45.97;;
22697;SDS011;11516;51.612;7.510;2022-12-17T03:21:52;84.65;;;45.00;;
22697;SDS011;11516;51.612;7.510;2022-12-17T03:24:37;88.38;;;47.10;;
22697;SDS011;11516;51.612;7.510;2022-12-17T03:27:21;89.65;;;44.50;;
22697;SDS011;11516;51.612;7.510;2022-12-17T03:30:05;89.05;;;44.28;;
22697;SDS011;11516;51.612;7.510;2022-12-17T03:32:50;93.03;;;41.60;;
22697;SDS011;11516;51.612;7.510;2022-12-17T03:35:34;88.07;;;43.67;;
22697;SDS011;11516;51.612;7.510;2022-12-17T03:38:18;88.30;;;44.40;;
22697;SDS011;11516;51.612;7.510;2022-12-17T03:41:02;94.72;;;42.63;;
22697;SDS011;11516;51.612;7.510;2022-12-17T03:43:47;100.97;;;42.65;;
22697;SDS011;11516;51.612;7.510;2022-12-17T03:46:31;87.78;;;42.17;;
22697;SDS011;11516;51.612;7.510;2022-12-17T03:49:15;89.32;;;42.15;;
22697;SDS011;11516;51.612;7.510;2022-12-17T03:51:59;89.38;;;42.63;;
22697;SDS011;11516;51.612;7.510;2022-12-17T03:54:43;110.82;;;43.17;;
22697;SDS011;11516;51.612;7.510;2022-12-17T03:57:27;82.10;;;42.92;;
22697;SDS011;11516;51.612;7.510;2022-12-17T04:00:11;76.00;;;41.25;;
22697;SDS011;11516;51.612;7.510;2022-12-17T04:02:56;80.90;;;40.90;;
22697;SDS011;11516;51.612;7.510;2022-12-17T04:05:40;100.53;;;40.72;;
22697;SDS011;11516;51.612;7.510;2022-12-17T04:08:25;81.75;;;41.75;;
22697;SDS011;11516;51.612;7.510;2022-12-17T04:11:09;91.55;;;42.83;;
22697;SDS011;11516;51.612;7.510;2022-12-17T04:13:54;83.10;;;42.22;;
22697;SDS011;11516;51.612;7.510;2022-12-17T04:16:38;77.38;;;37.63;;
22697;SDS011;11516;51.612;7.510;2022-12-17T04:19:22;80.95;;;40.47;;
22697;SDS011;11516;51.612;7.510;2022-12-17T04:22:06;87.80;;;41.17;;
22697;SDS011;11516;51.612;7.510;2022-12-17T04:24:51;85.03;;;41.05;;
22697;SDS011;11516;51.612;7.510;2022-12-17T04:27:35;83.28;;;39.38;;
22697;SDS011;11516;51.612;7.510;2022-12-17T04:30:19;94.63;;;42.67;;
22697;SDS011;11516;51.612;7.510;2022-12-17T04:33:03;85.47;;;40.72;;
22697;SDS011;11516;51.612;7.510;2022-12-17T04:35:47;88.60;;;43.25;;
22697;SDS011;11516;51.612;7.510;2022-12-17T04:38:32;83.70;;;38.60;;
22697;SDS011;11516;51.612;7.510;2022-12-17T04:41:16;86.53;;;39.70;;
22697;SDS011;11516;51.612;7.510;2022-12-17T04:44:00;88.45;;;42.17;;
22697;SDS011;11516;51.612;7.510;2022-12-17T04:46:44;88.95;;;40.03;;
22697;SDS011;11516;51.612;7.510;2022-12-17T04:49:28;82.22;;;41.95;;
22697;SDS011;11516;51.612;7.510;2022-12-17T04:52:13;80.20;;;39.42;;
22697;SDS011;11516;51.612;7.510;2022-12-17T04:54:57;77.78;;;38.30;;
22697;SDS011;11516;51.612;7.510;2022-12-17T04:57:41;81.15;;;40.10;;
22697;SDS011;11516;51.612;7.510;2022-12-17T05:00:25;79.75;;;40.65;;
22697;SDS011;11516;51.612;7.510;2022-12-17T05:03:04;82.18;;;39.90;;
22697;SDS011;11516;51.612;7.510;2022-12-17T05:05:50;78.70;;;39.72;;
22697;SDS011;11516;51.612;7.510;2022-12-17T05:08:34;76.22;;;38.17;;
22697;SDS011;11516;51.612;7.510;2022-12-17T05:11:18;64.63;;;33.17;;
22697;SDS011;11516;51.612;7.510;2022-12-17T05:14:03;69.47;;;34.95;;
22697;SDS011;11516;51.612;7.510;2022-12-17T05:16:47;67.72;;;33.35;;
22697;SDS011;11516;51.612;7.510;2022-12-17T05:19:31;70.47;;;36.63;;
22697;SDS011;11516;51.612;7.510;2022-12-17T05:22:15;67.13;;;35.42;;
22697;SDS011;11516;51.612;7.510;2022-12-17T05:25:04;68.82;;;36.05;;
22697;SDS011;11516;51.612;7.510;2022-12-17T05:27:48;62.10;;;35.20;;
22697;SDS011;11516;51.612;7.510;2022-12-17T05:30:32;60.95;;;33.35;;
22697;SDS011;11516;51.612;7.510;2022-12-17T05:33:17;63.35;;;33.92;;
22697;SDS011;11516;51.612;7.510;2022-12-17T05:36:01;62.03;;;31.63;;
22697;SDS011;11516;51.612;7.510;2022-12-17T05:38:46;61.22;;;30.98;;
22697;SDS011;11516;51.612;7.510;2022-12-17T05:41:31;61.22;;;31.05;;
22697;SDS011;11516;51.612;7.510;2022-12-17T05:44:15;53.33;;;29.00;;
22697;SDS011;11516;51.612;7.510;2022-12-17T05:46:59;56.80;;;31.08;;
22697;SDS011;11516;51.612;7.510;2022-12-17T05:49:43;55.20;;;29.98;;
22697;SDS011;11516;51.612;7.510;2022-12-17T05:52:27;52.97;;;29.40;;
22697;SDS011;11516;51.612;7.510;2022-12-17T05:55:11;59.08;;;30.38;;
22697;SDS011;11516;51.612;7.510;2022-12-17T05:58:02;54.42;;;29.00;;
22697;SDS011;11516;51.612;7.510;2022-12-17T06:00:48;53.85;;;28.88;;
22697;SDS011;11516;51.612;7.510;2022-12-17T06:03:32;51.35;;;28.38;;
22697;SDS011;11516;51.612;7.510;2022-12-17T06:06:16;52.65;;;29.25;;
22697;SDS011;11516;51.612;7.510;2022-12-17T06:09:01;56.33;;;30.77;;
22697;SDS011;11516;51.612;7.510;2022-12-17T06:11:45;60.10;;;33.22;;
22697;SDS011;11516;51.612;7.510;2022-12-17T06:14:29;53.53;;;28.60;;
22697;SDS011;11516;51.612;7.510;2022-12-17T06:17:13;57.75;;;32.70;;
22697;SDS011;11516;51.612;7.510;2022-12-17T06:19:58;58.13;;;29.63;;
22697;SDS011;11516;51.612;7.510;2022-12-17T06:22:42;56.13;;;29.15;;
22697;SDS011;11516;51.612;7.510;2022-12-17T06:25:26;49.17;;;26.33;;
22697;SDS011;11516;51.612;7.510;2022-12-17T06:28:10;52.97;;;29.70;;
22697;SDS011;11516;51.612;7.510;2022-12-17T06:30:55;50.60;;;27.65;;
22697;SDS011;11516;51.612;7.510;2022-12-17T06:33:39;50.17;;;25.42;;
22697;SDS011;11516;51.612;7.510;2022-12-17T06:36:23;44.50;;;23.40;;
22697;SDS011;11516;51.612;7.510;2022-12-17T06:39:07;44.97;;;23.20;;
22697;SDS011;11516;51.612;7.510;2022-12-17T06:41:52;43.90;;;21.57;;
22697;SDS011;11516;51.612;7.510;2022-12-17T06:44:36;42.38;;;22.38;;
22697;SDS011;11516;51.612;7.510;2022-12-17T06:47:20;45.50;;;24.00;;
22697;SDS011;11516;51.612;7.510;2022-12-17T06:50:04;45.05;;;22.85;;
22697;SDS011;11516;51.612;7.510;2022-12-17T06:53:08;50.90;;;27.48;;
22697;SDS011;11516;51.612;7.510;2022-12-17T06:55:55;47.33;;;25.58;;
22697;SDS011;11516;51.612;7.510;2022-12-17T06:58:40;49.28;;;25.27;;
22697;SDS011;11516;51.612;7.510;2022-12-17T07:01:24;50.42;;;26.38;;
22697;SDS011;11516;51.612;7.510;2022-12-17T07:04:09;46.47;;;23.70;;
22697;SDS011;11516;51.612;7.510;2022-12-17T07:06:53;47.30;;;24.50;;
22697;SDS011;11516;51.612;7.510;2022-12-17T07:09:37;51.28;;;24.33;;
22697;SDS011;11516;51.612;7.510;2022-12-17T07:12:21;47.13;;;22.98;;
22697;SDS011;11516;51.612;7.510;2022-12-17T07:15:06;48.73;;;22.20;;
22697;SDS011;11516;51.612;7.510;2022-12-17T07:17:54;46.80;;;22.30;;
22697;SDS011;11516;51.612;7.510;2022-12-17T07:20:40;45.78;;;22.20;;
22697;SDS011;11516;51.612;7.510;2022-12-17T07:23:24;45.65;;;21.63;;
22697;SDS011;11516;51.612;7.510;2022-12-17T07:26:08;43.28;;;21.65;;
22697;SDS011;11516;51.612;7.510;2022-12-17T07:28:52;43.85;;;22.10;;
22697;SDS011;11516;51.612;7.510;2022-12-17T07:31:36;43.65;;;21.48;;
22697;SDS011;11516;51.612;7.510;2022-12-17T07:34:21;47.60;;;22.53;;
22697;SDS011;11516;51.612;7.510;2022-12-17T07:37:05;50.13;;;22.85;;
22697;SDS011;11516;51.612;7.510;2022-12-17T07:39:49;50.45;;;23.88;;
22697;SDS011;11516;51.612;7.510;2022-12-17T07:42:33;57.75;;;27.67;;
22697;SDS011;11516;51.612;7.510;2022-12-17T07:45:18;51.35;;;26.00;;
22697;SDS011;11516;51.612;7.510;2022-12-17T07:48:02;47.17;;;23.20;;
22697;SDS011;11516;51.612;7.510;2022-12-17T07:50:49;49.23;;;24.27;;
22697;SDS011;11516;51.612;7.510;2022-12-17T07:53:33;49.17;;;22.90;;
22697;SDS011;11516;51.612;7.510;2022-12-17T07:56:18;48.17;;;22.55;;
22697;SDS011;11516;51.612;7.510;2022-12-17T07:59:02;47.07;;;22.53;;
22697;SDS011;11516;51.612;7.510;2022-12-17T08:01:51;49.22;;;22.08;;
22697;SDS011;11516;51.612;7.510;2022-12-17T08:04:39;53.28;;;25.05;;
22697;SDS011;11516;51.612;7.510;2022-12-17T08:07:34;49.20;;;22.08;;
22697;SDS011;11516;51.612;7.510;2022-12-17T08:10:18;56.47;;;24.93;;
22697;SDS011;11516;51.612;7.510;2022-12-17T08:13:03;50.47;;;23.70;;
22697;SDS011;11516;51.612;7.510;2022-12-17T08:15:48;54.78;;;26.17;;
22697;SDS011;11516;51.612;7.510;2022-12-17T08:18:32;47.72;;;23.98;;
22697;SDS011;11516;51.612;7.510;2022-12-17T08:21:17;48.53;;;23.77;;
22697;SDS011;11516;51.612;7.510;2022-12-17T08:24:01;47.55;;;22.70;;
22697;SDS011;11516;51.612;7.510;2022-12-17T08:26:45;45.10;;;21.08;;
22697;SDS011;11516;51.612;7.510;2022-12-17T08:29:29;48.55;;;22.95;;
22697;SDS011;11516;51.612;7.510;2022-12-17T08:32:30;45.65;;;23.25;;
22697;SDS011;11516;51.612;7.510;2022-12-17T08:35:14;47.13;;;24.58;;
22697;SDS011;11516;51.612;7.510;2022-12-17T08:38:01;47.80;;;25.10;;
22697;SDS011;11516;51.612;7.510;2022-12-17T08:40:47;49.00;;;24.98;;
22697;SDS011;11516;51.612;7.510;2022-12-17T08:43:31;46.22;;;25.00;;
22697;SDS011;11516;51.612;7.510;2022-12-17T08:46:15;48.53;;;24.92;;
22697;SDS011;11516;51.612;7.510;2022-12-17T08:49:16;51.30;;;26.23;;
22697;SDS011;11516;51.612;7.510;2022-12-17T08:52:00;55.17;;;27.20;;
22697;SDS011;11516;51.612;7.510;2022-12-17T08:54:44;53.88;;;28.10;;
22697;SDS011;11516;51.612;7.510;2022-12-17T08:57:28;53.78;;;26.88;;
22697;SDS011;11516;51.612;7.510;2022-12-17T09:00:12;46.00;;;25.10;;
22697;SDS011;11516;51.612;7.510;2022-12-17T09:02:57;48.47;;;24.65;;
22697;SDS011;11516;51.612;7.510;2022-12-17T09:05:43;45.17;;;25.17;;
22697;SDS011;11516;51.612;7.510;2022-12-17T09:08:27;47.70;;;25.88;;
22697;SDS011;11516;51.612;7.510;2022-12-17T09:11:12;47.15;;;25.23;;
22697;SDS011;11516;51.612;7.510;2022-12-17T09:13:56;43.10;;;23.63;;
22697;SDS011;11516;51.612;7.510;2022-12-17T09:16:40;43.58;;;24.10;;
22697;SDS011;11516;51.612;7.510;2022-12-17T09:19:32;43.72;;;24.10;;
22697;SDS011;11516;51.612;7.510;2022-12-17T09:22:16;45.72;;;24.83;;
22697;SDS011;11516;51.612;7.510;2022-12-17T09:25:00;40.58;;;23.33;;
22697;SDS011;11516;51.612;7.510;2022-12-17T09:27:44;46.28;;;24.48;;
22697;SDS011;11516;51.612;7.510;2022-12-17T09:30:28;40.78;;;23.23;;
22697;SDS011;11516;51.612;7.510;2022-12-17T09:33:32;42.97;;;24.85;;
22697;SDS011;11516;51.612;7.510;2022-12-17T09:36:17;46.00;;;24.92;;
22697;SDS011;11516;51.612;7.510;2022-12-17T09:39:01;43.13;;;24.80;;
22697;SDS011;11516;51.612;7.510;2022-12-17T09:44:34;44.00;;;24.70;;
22697;SDS011;11516;51.612;7.510;2022-12-17T09:47:54;40.97;;;24.20;;
22697;SDS011;11516;51.612;7.510;2022-12-17T09:50:44;47.72;;;26.65;;
22697;SDS011;11516;51.612;7.510;2022-12-17T09:53:36;49.28;;;28.23;;
22697;SDS011;11516;51.612;7.510;2022-12-17T09:56:25;41.13;;;25.58;;
22697;SDS011;11516;51.612;7.510;2022-12-17T09:59:22;47.53;;;27.38;;
22697;SDS011;11516;51.612;7.510;2022-12-17T10:02:11;47.92;;;28.48;;
22697;SDS011;11516;51.612;7.510;2022-12-17T10:04:57;49.60;;;28.05;;
22697;SDS011;11516;51.612;7.510;2022-12-17T10:07:43;51.05;;;27.52;;
22697;SDS011;11516;51.612;7.510;2022-12-17T10:10:30;46.88;;;27.40;;
22697;SDS011;11516;51.612;7.510;2022-12-17T10:13:19;55.00;;;30.33;;
22697;SDS011;11516;51.612;7.510;2022-12-17T10:16:19;48.73;;;28.17;;
22697;SDS011;11516;51.612;7.510;2022-12-17T10:19:10;57.70;;;31.85;;
22697;SDS011;11516;51.612;7.510;2022-12-17T10:22:10;60.43;;;32.23;;
22697;SDS011;11516;51.612;7.510;2022-12-17T10:24:56;58.22;;;30.75;;
22697;SDS011;11516;51.612;7.510;2022-12-17T10:27:44;56.35;;;31.63;;
22697;SDS011;11516;51.612;7.510;2022-12-17T10:30:28;59.83;;;32.60;;
22697;SDS011;11516;51.612;7.510;2022-12-17T10:33:16;65.82;;;35.15;;
22697;SDS011;11516;51.612;7.510;2022-12-17T10:36:03;63.65;;;35.20;;
22697;SDS011;11516;51.612;7.510;2022-12-17T10:38:54;76.70;;;41.10;;
22697;SDS011;11516;51.612;7.510;2022-12-17T10:41:39;72.82;;;41.47;;
22697;SDS011;11516;51.612;7.510;2022-12-17T10:44:26;67.40;;;37.72;;
22697;SDS011;11516;51.612;7.510;2022-12-17T10:47:15;58.78;;;34.47;;
22697;SDS011;11516;51.612;7.510;2022-12-17T10:50:11;58.08;;;35.53;;
22697;SDS011;11516;51.612;7.510;2022-12-17T10:52:57;55.60;;;34.43;;
22697;SDS011;11516;51.612;7.510;2022-12-17T10:55:52;56.33;;;34.80;;
22697;SDS011;11516;51.612;7.510;2022-12-17T10:58:42;62.75;;;36.60;;
22697;SDS011;11516;51.612;7.510;2022-12-17T11:01:28;63.95;;;38.53;;
22697;SDS011;11516;51.612;7.510;2022-12-17T11:04:32;54.50;;;32.77;;
22697;SDS011;11516;51.612;7.510;2022-12-17T11:07:20;50.53;;;32.28;;
22697;SDS011;11516;51.612;7.510;2022-12-17T11:10:15;48.97;;;30.48;;
22697;SDS011;11516;51.612;7.510;2022-12-17T11:13:06;48.50;;;30.40;;
22697;SDS011;11516;51.612;7.510;2022-12-17T11:15:55;45.72;;;28.42;;
22697;SDS011;11516;51.612;7.510;2022-12-17T11:21:41;47.50;;;30.77;;
22697;SDS011;11516;51.612;7.510;2022-12-17T11:24:37;53.83;;;33.58;;
22697;SDS011;11516;51.612;7.510;2022-12-17T11:27:26;58.83;;;34.72;;
22697;SDS011;11516;51.612;7.510;2022-12-17T11:30:15;60.15;;;36.05;;
22697;SDS011;11516;51.612;7.510;2022-12-17T11:39:01;43.95;;;27.45;;
22697;SDS011;11516;51.612;7.510;2022-12-17T11:44:59;48.57;;;29.20;;
22697;SDS011;11516;51.612;7.510;2022-12-17T11:48:15;40.40;;;25.25;;
22697;SDS011;11516;51.612;7.510;2022-12-17T11:51:30;41.67;;;26.00;;
22697;SDS011;11516;51.612;7.510;2022-12-17T11:54:47;43.58;;;27.08;;
22697;SDS011;11516;51.612;7.510;2022-12-17T11:57:51;52.38;;;31.38;;
22697;SDS011;11516;51.612;7.510;2022-12-17T12:00:50;57.22;;;34.47;;
22697;SDS011;11516;51.612;7.510;2022-12-17T12:03:57;63.38;;;37.78;;
22697;SDS011;11516;51.612;7.510;2022-12-17T12:07:13;63.57;;;37.33;;
22697;SDS011;11516;51.612;7.510;2022-12-17T12:10:08;62.42;;;37.88;;
22697;SDS011;11516;51.612;7.510;2022-12-17T12:22:38;76.55;;;44.58;;
22697;SDS011;11516;51.612;7.510;2022-12-17T12:31:17;76.25;;;43.20;;
22697;SDS011;11516;51.612;7.510;2022-12-17T12:34:12;77.95;;;44.28;;
22697;SDS011;11516;51.612;7.510;2022-12-17T12:37:01;73.30;;;42.63;;
22697;SDS011;11516;51.612;7.510;2022-12-17T12:39:53;81.77;;;45.10;;
22697;SDS011;11516;51.612;7.510;2022-12-17T12:42:49;80.95;;;44.90;;
22697;SDS011;11516;51.612;7.510;2022-12-17T12:52:20;82.30;;;45.92;;
22697;SDS011;11516;51.612;7.510;2022-12-17T12:55:06;87.57;;;47.45;;
22697;SDS011;11516;51.612;7.510;2022-12-17T12:57:55;82.63;;;44.95;;
22697;SDS011;11516;51.612;7.510;2022-12-17T13:03:27;82.90;;;46.33;;
22697;SDS011;11516;51.612;7.510;2022-12-17T13:06:39;76.45;;;42.88;;
22697;SDS011;11516;51.612;7.510;2022-12-17T13:11:52;66.10;;;38.47;;
22697;SDS011;11516;51.612;7.510;2022-12-17T13:14:22;62.97;;;37.00;;
22697;SDS011;11516;51.612;7.510;2022-12-17T13:16:53;59.38;;;35.50;;
22697;SDS011;11516;51.612;7.510;2022-12-17T13:19:38;74.50;;;41.70;;
22697;SDS011;11516;51.612;7.510;2022-12-17T13:24:35;73.65;;;41.00;;
22697;SDS011;11516;51.612;7.510;2022-12-17T13:27:01;70.78;;;41.55;;
22697;SDS011;11516;51.612;7.510;2022-12-17T13:29:28;71.55;;;40.90;;
22697;SDS011;11516;51.612;7.510;2022-12-17T13:34:30;65.95;;;38.17;;
22697;SDS011;11516;51.612;7.510;2022-12-17T13:37:01;67.18;;;38.50;;
22697;SDS011;11516;51.612;7.510;2022-12-17T13:42:28;65.25;;;37.03;;
22697;SDS011;11516;51.612;7.510;2022-12-17T13:44:56;63.28;;;37.15;;
22697;SDS011;11516;51.612;7.510;2022-12-17T13:47:24;61.97;;;35.22;;
22697;SDS011;11516;51.612;7.510;2022-12-17T13:49:53;62.08;;;34.50;;
22697;SDS011;11516;51.612;7.510;2022-12-17T13:52:20;69.00;;;37.80;;
22697;SDS011;11516;51.612;7.510;2022-12-17T13:54:49;62.65;;;36.65;;
22697;SDS011;11516;51.612;7.510;2022-12-17T13:57:16;60.90;;;35.20;;
22697;SDS011;11516;51.612;7.510;2022-12-17T13:59:55;66.18;;;35.55;;
22697;SDS011;11516;51.612;7.510;2022-12-17T14:04:58;65.37;;;37.00;;
22697;SDS011;11516;51.612;7.510;2022-12-17T14:07:26;62.95;;;35.50;;
22697;SDS011;11516;51.612;7.510;2022-12-17T14:09:52;61.00;;;35.20;;
22697;SDS011;11516;51.612;7.510;2022-12-17T14:12:20;58.20;;;33.67;;
22697;SDS011;11516;51.612;7.510;2022-12-17T14:14:53;60.03;;;34.03;;
22697;SDS011;11516;51.612;7.510;2022-12-17T14:20:16;62.53;;;34.13;;
22697;SDS011;11516;51.612;7.510;2022-12-17T14:22:46;62.95;;;33.80;;
22697;SDS011;11516;51.612;7.510;2022-12-17T14:25:18;63.50;;;34.78;;
22697;SDS011;11516;51.612;7.510;2022-12-17T14:27:53;60.60;;;33.95;;
22697;SDS011;11516;51.612;7.510;2022-12-17T14:30:24;58.22;;;34.38;;
22697;SDS011;11516;51.612;7.510;2022-12-17T14:32:58;61.47;;;34.30;;
22697;SDS011;11516;51.612;7.510;2022-12-17T14:35:27;57.87;;;34.50;;
22697;SDS011;11516;51.612;7.510;2022-12-17T14:37:55;61.88;;;34.80;;
22697;SDS011;11516;51.612;7.510;2022-12-17T14:40:22;62.97;;;34.78;;
22697;SDS011;11516;51.612;7.510;2022-12-17T14:42:49;64.45;;;35.80;;
22697;SDS011;11516;51.612;7.510;2022-12-17T14:47:56;60.53;;;34.22;;
22697;SDS011;11516;51.612;7.510;2022-12-17T14:50:26;60.25;;;34.88;;
22697;SDS011;11516;51.612;7.510;2022-12-17T14:52:57;62.17;;;36.00;;
22697;SDS011;11516;51.612;7.510;2022-12-17T14:55:56;59.53;;;34.22;;
22697;SDS011;11516;51.612;7.510;2022-12-17T14:58:23;56.75;;;33.08;;
22697;SDS011;11516;51.612;7.510;2022-12-17T15:00:58;56.40;;;33.50;;
22697;SDS011;11516;51.612;7.510;2022-12-17T15:03:33;62.75;;;34.72;;
22697;SDS011;11516;51.612;7.510;2022-12-17T15:06:04;58.15;;;34.35;;
22697;SDS011;11516;51.612;7.510;2022-12-17T15:08:46;63.20;;;34.67;;
22697;SDS011;11516;51.612;7.510;2022-12-17T15:11:18;57.85;;;34.38;;
22697;SDS011;11516;51.612;7.510;2022-12-17T15:13:44;60.15;;;34.50;;
22697;SDS011;11516;51.612;7.510;2022-12-17T15:16:10;59.45;;;35.72;;
22697;SDS011;11516;51.612;7.510;2022-12-17T15:18:36;62.88;;;35.47;;
22697;SDS011;11516;51.612;7.510;2022-12-17T15:21:02;61.07;;;35.73;;
22697;SDS011;11516;51.612;7.510;2022-12-17T15:23:27;64.93;;;35.90;;
22697;SDS011;11516;51.612;7.510;2022-12-17T15:25:54;64.68;;;36.22;;
22697;SDS011;11516;51.612;7.510;2022-12-17T15:28:20;71.47;;;40.67;;
22697;SDS011;11516;51.612;7.510;2022-12-17T15:30:47;79.88;;;43.45;;
22697;SDS011;11516;51.612;7.510;2022-12-17T15:33:13;77.70;;;44.00;;
22697;SDS011;11516;51.612;7.510;2022-12-17T15:35:39;77.10;;;42.70;;
22697;SDS011;11516;51.612;7.510;2022-12-17T15:38:05;74.90;;;40.38;;
22697;SDS011;11516;51.612;7.510;2022-12-17T15:40:31;75.83;;;41.77;;
22697;SDS011;11516;51.612;7.510;2022-12-17T15:42:57;70.13;;;38.50;;
22697;SDS011;11516;51.612;7.510;2022-12-17T15:45:39;68.90;;;37.55;;
22697;SDS011;11516;51.612;7.510;2022-12-17T15:48:12;64.68;;;37.03;;
22697;SDS011;11516;51.612;7.510;2022-12-17T15:50:39;65.60;;;35.47;;
22697;SDS011;11516;51.612;7.510;2022-12-17T15:53:05;62.63;;;37.15;;
22697;SDS011;11516;51.612;7.510;2022-12-17T15:55:31;64.38;;;36.92;;
22697;SDS011;11516;51.612;7.510;2022-12-17T15:57:57;65.20;;;37.88;;
22697;SDS011;11516;51.612;7.510;2022-12-17T16:00:23;58.47;;;36.60;;
22697;SDS011;11516;51.612;7.510;2022-12-17T16:02:49;57.25;;;34.53;;
22697;SDS011;11516;51.612;7.510;2022-12-17T16:05:15;61.78;;;35.38;;
22697;SDS011;11516;51.612;7.510;2022-12-17T16:07:41;61.73;;;37.27;;
22697;SDS011;11516;51.612;7.510;2022-12-17T16:10:10;60.85;;;36.58;;
22697;SDS011;11516;51.612;7.510;2022-12-17T16:12:36;64.63;;;38.10;;
22697;SDS011;11516;51.612;7.510;2022-12-17T16:15:03;61.53;;;37.78;;
22697;SDS011;11516;51.612;7.510;2022-12-17T16:17:29;63.17;;;36.55;;
22697;SDS011;11516;51.612;7.510;2022-12-17T16:19:55;57.63;;;34.60;;
22697;SDS011;11516;51.612;7.510;2022-12-17T16:22:20;61.30;;;35.43;;
22697;SDS011;11516;51.612;7.510;2022-12-17T16:24:46;62.58;;;36.30;;
22697;SDS011;11516;51.612;7.510;2022-12-17T16:27:12;60.77;;;36.73;;
22697;SDS011;11516;51.612;7.510;2022-12-17T16:29:38;56.80;;;35.15;;
22697;SDS011;11516;51.612;7.510;2022-12-17T16:32:04;59.55;;;36.85;;
22697;SDS011;11516;51.612;7.510;2022-12-17T16:34:29;60.28;;;35.22;;
22697;SDS011;11516;51.612;7.510;2022-12-17T16:36:55;58.17;;;33.93;;
22697;SDS011;11516;51.612;7.510;2022-12-17T16:39:21;56.30;;;33.13;;
22697;SDS011;11516;51.612;7.510;2022-12-17T16:41:47;51.20;;;32.30;;
22697;SDS011;11516;51.612;7.510;2022-12-17T16:44:12;57.35;;;33.90;;
22697;SDS011;11516;51.612;7.510;2022-12-17T16:46:39;53.50;;;33.10;;
22697;SDS011;11516;51.612;7.510;2022-12-17T16:51:32;55.10;;;32.35;;
22697;SDS011;11516;51.612;7.510;2022-12-17T16:53:58;56.08;;;32.97;;
22697;SDS011;11516;51.612;7.510;2022-12-17T16:56:27;56.22;;;34.30;;
22697;SDS011;11516;51.612;7.510;2022-12-17T16:58:53;57.30;;;34.03;;
22697;SDS011;11516;51.612;7.510;2022-12-17T17:01:20;52.33;;;32.40;;